KPTB/PTB METAR and TAF weather

Enter ICAO airport designator
Station Type Date Time Source
KPTB METAR 2020/09/20 14:15 UTC NOAA

KPTB 201415Z AUTO 02009KT 10SM CLR 16/06 A3043 RMK AO2 T01620063


Station Type Date Time Source
KPTB Decoded METAR 2020/09/20 14:15 UTC NOAA

Petersburg, Dinwiddie County Airport, VA, United States (KPTB) 37-11N 077-31W
Sep 20, 2020 - 10:15 AM EDT / 2020.09.20 1415 UTC
Wind: from the NNE (020 degrees) at 10 MPH (9 KT):0
Visibility: 10 mile(s):0
Sky conditions: clear
Temperature: 61.2 F (16.2 C)
Dew Point: 43.3 F (6.3 C)
Relative Humidity: 51%
Pressure (altimeter): 30.43 in. Hg (1030 hPa)
ob: KPTB 201415Z AUTO 02009KT 10SM CLR 16/06 A3043 RMK AO2 T01620063
cycle: 14

Station Type Date Time Source
KPTB TAF UTC NOAA

Error!

Example: see airport list